• Join FlightAware (Why Join?)
  • Login
  • US Flag 
10:57AM EDT


 

Airport Tracker/Info


-or-


 

Live Flight TrackerFlight Track Log ✈ AWE1913 ✈ 16-Apr-2013 ✈ KDTW - KPHL

Flight Track Log - Related Links

Times and Time Zones

All times are in EDT time to prevent confusion due to time zone crossing. See the AWE1913 flight status page for this flight to view local times or setup timezone preferences in your user account.

Time Position Orientation Groundspeed Altitude Reporting Facility
EDT Latitude Longitude Course Direction KTS MPH feet Rate Location/Type
07:33AM 42.2064 -83.3525 90° East 178 205 1,500  Level FAA TRACON SMA TRACON (SMA)
07:33AM 42.1878 -83.3550 186° South 189 217 2,700 2,700 Climbing FAA TRACON SMA TRACON (SMA)
07:33AM 42.1672 -83.3506 171° South 218 251 3,300 2,520 Climbing FAA TRACON SMA TRACON (SMA)
07:34AM 42.1481 -83.3461 170° South 227 261 4,400 3,660 Climbing FAA TRACON SMA TRACON (SMA)
07:34AM 42.1306 -83.3417 169° South 219 252 5,700 3,360 Climbing FAA TRACON SMA TRACON (SMA)
07:34AM 42.1108 -83.3361 168° South 216 249 6,700 2,400 Climbing FAA TRACON SMA TRACON (SMA)
07:35AM 42.2167 -82.9127 90° East  Level FlightAware Approximate
07:35AM 42.0908 -83.3297 167° South 243 280 7,300  Level FAA TRACON SMA TRACON (SMA)
07:35AM 42.0628 -83.3200 166° South 280 322 8,500 3,420 Climbing FAA TRACON SMA TRACON (SMA)
07:35AM 42.0442 -83.2986 140° Southeast 295 339 9,600 3,360 Climbing FAA TRACON SMA TRACON (SMA)
07:36AM 42.2167 -82.7646 90° East  Level FlightAware Approximate
07:36AM 42.0350 -83.2647 110° East 324 373 10,700  Level FAA TRACON SMA TRACON (SMA)
07:36AM 42.0319 -83.2167 95° East 340 391 11,700 1,980 Climbing FAA TRACON SMA TRACON (SMA)
07:36AM 42.0328 -83.1747 88° East 329 379 12,000 2,100 Climbing Cleveland Center
07:37AM 42.2167 -82.6165 90° East  Level FlightAware Approximate
07:37AM 42.0692 -83.0364 70° East 345 397 14,500  Level Cleveland Center
07:38AM 42.2167 -82.4685 90° East  Level FlightAware Approximate
07:38AM 42.1078 -82.8922 70° East 371 427 17,100  Level Cleveland Center
07:39AM 42.1461 -82.7394 71° East 401 461 19,500 2,220 Climbing Cleveland Center
07:40AM 42.1864 -82.5897 70° East 412 474 21,600 2,040 Climbing Cleveland Center
07:41AM 42.2203 -82.4336 74° East 422 486 23,600 1,740 Climbing Cleveland Center
07:42AM 42.2103 -82.2625 94° East 435 501 25,100 1,200 Climbing Cleveland Center
07:43AM 42.1981 -82.0856 95° East 445 512 26,100 900 Climbing Cleveland Center
07:44AM 42.1608 -81.9081 106° East 474 545 27,000 1,140 Climbing Cleveland Center
07:45AM 42.0600 -81.7886 139° Southeast 470 541 28,400 1,740 Climbing Cleveland Center
07:46AM 41.9589 -81.6694 139° Southeast 477 549 30,500 1,920 Climbing Cleveland Center
07:47AM 41.8578 -81.5533 139° Southeast 472 543 32,300 1,200 Climbing Cleveland Center
07:48AM 41.7567 -81.4406 140° Southeast 472 543 33,000 720 Climbing Cleveland Center
07:49AM 41.6636 -81.3336 139° Southeast 483 556 33,800 960 Climbing Cleveland Center
07:50AM 41.5642 -81.2158 138° Southeast 489 563 35,000 600 Climbing Cleveland Center
07:51AM 41.4647 -81.0903 137° Southeast 489 563 35,000  Level Cleveland Center
07:52AM 41.3611 -80.9456 134° Southeast 489 563 35,000  Level Cleveland Center
07:53AM 41.2656 -80.8178 135° Southeast 489 563 35,000  Level Cleveland Center
07:54AM 41.1700 -80.6825 133° Southeast 489 563 35,000  Level Cleveland Center
07:55AM 41.0867 -80.5667 134° Southeast 489 563 35,000  Level Cleveland Center
07:56AM 40.9906 -80.4319 133° Southeast 489 563 35,000  Level Cleveland Center
07:57AM 40.8861 -80.2919 135° Southeast 489 563 35,000  Level Cleveland Center
07:58AM 40.8086 -80.1578 127° Southeast 495 570 35,000  Level Cleveland Center
07:59AM 40.7389 -79.9719 116° Southeast 502 578 35,000  Level Cleveland Center
08:00AM 40.6794 -79.8000 114° Southeast 507 583 35,000  Level Cleveland Center
08:01AM 40.6156 -79.6339 117° Southeast 507 583 35,000  Level Cleveland Center
08:02AM 40.5558 -79.4681 115° Southeast 507 583 35,000  Level Cleveland Center
08:03AM 40.5169 -79.3322 111° Southeast 502 578 35,000  Level Cleveland Center
08:04AM 40.4831 -79.1144 101° East 495 570 35,000  Level Cleveland Center
08:05AM 40.4575 -78.9322 100° East 495 570 35,000  Level Cleveland Center
08:06AM 40.4297 -78.7503 101° East 506 582 35,000  Level Cleveland Center
08:07AM 40.4036 -78.5656 100° East 506 582 35,000 -1,740 Level Cleveland Center
08:10AM 40.3425 -78.1678 101° East 502 578 29,300 -2,820 Descending New York Center
08:11AM 40.3161 -77.9853 101° East 502 578 25,700 -3,180 Descending New York Center
08:12AM 40.3108 -77.7967 92° East 507 583 23,100 -3,060 Descending New York Center
08:13AM 40.3111 -77.6144 90° East 512 589 19,600 -2,520 Descending New York Center
08:14AM 40.3072 -77.4261 91° East 486 559 18,000 -840 Descending New York Center
08:15AM 40.3053 -77.2761 91° East 475 547 18,000  Level New York Center
08:16AM 40.3008 -77.0881 92° East 464 534 18,000  Level New York Center
08:17AM 40.2678 -76.9244 105° East 459 528 18,000  Level New York Center
08:18AM 40.2300 -76.7661 107° East 470 541 18,000 -1,200 Level New York Center
08:19AM 40.1978 -76.6219 106° East 464 534 15,700 -2,640 Descending New York Center
08:20AM 40.1614 -76.4667 107° East 452 520 12,700 -2,340 Descending New York Center
08:21AM 40.1225 -76.3000 107° East 427 491 11,000 -1,440 Descending FAA TRACON SMA TRACON (SMA)
08:21AM 40.1178 -76.2431 96° East 426 490 10,800 -480 Descending FAA TRACON SMA TRACON (SMA)
08:21AM 40.1136 -76.1972 97° East 404 465 10,700 -300 Descending FAA TRACON SMA TRACON (SMA)
08:22AM 40.1103 -76.1558 96° East 374 430 10,600 -480 Descending FAA TRACON SMA TRACON (SMA)
08:22AM 40.1072 -76.1092 95° East 352 405 10,400 -480 Descending FAA TRACON SMA TRACON (SMA)
08:22AM 40.1047 -76.0703 95° East 334 384 10,300 -480 Descending FAA TRACON SMA TRACON (SMA)
08:23AM 40.1025 -76.0350 95° East 320 368 10,100 -480 Descending FAA TRACON SMA TRACON (SMA)
08:23AM 40.0989 -75.9917 96° East 306 352 10,000 -480 Descending FAA TRACON SMA TRACON (SMA)
08:23AM 40.0972 -75.9592 94° East 306 352 9,800 -1,380 Descending FAA TRACON SMA TRACON (SMA)
08:24AM 40.0942 -75.9161 95° East 306 352 9,100 -1,800 Descending FAA TRACON SMA TRACON (SMA)
08:24AM 40.0917 -75.8822 95° East 305 351 8,600 -1,200 Descending FAA TRACON SMA TRACON (SMA)
08:24AM 40.0892 -75.8489 96° East 302 348 8,300 -900 Descending FAA TRACON SMA TRACON (SMA)
08:25AM 40.0864 -75.8072 95° East 299 344 8,000 -480 Descending FAA TRACON SMA TRACON (SMA)
08:25AM 40.0839 -75.7758 96° East 294 338 8,000  Level FAA TRACON SMA TRACON (SMA)
08:25AM 40.0822 -75.7431 94° East 294 338 8,000  Level FAA TRACON SMA TRACON (SMA)
08:26AM 40.0933 -75.7142 63° Northeast 270 311 8,000  Level FAA TRACON SMA TRACON (SMA)
08:26AM 40.1100 -75.6822 56° Northeast 269 310 8,000  Level FAA TRACON SMA TRACON (SMA)
08:26AM 40.1228 -75.6578 56° Northeast 265 305 8,000  Level FAA TRACON SMA TRACON (SMA)
08:27AM 40.1381 -75.6278 56° Northeast 265 305 8,000  Level FAA TRACON SMA TRACON (SMA)
08:27AM 40.1514 -75.6036 54° Northeast 265 305 8,000  Level FAA TRACON SMA TRACON (SMA)
08:27AM 40.1647 -75.5781 56° Northeast 264 304 8,000  Level FAA TRACON SMA TRACON (SMA)
08:28AM 40.1767 -75.5539 57° Northeast 262 302 8,000  Level FAA TRACON SMA TRACON (SMA)
08:28AM 40.1894 -75.5219 62° Northeast 258 297 8,000  Level FAA TRACON SMA TRACON (SMA)
08:28AM 40.1878 -75.4936 94° East 254 292 8,000  Level FAA TRACON SMA TRACON (SMA)
08:29AM 40.1753 -75.4742 130° Southeast 234 269 8,000 -600 Level FAA TRACON SMA TRACON (SMA)
08:29AM 40.1550 -75.4614 154° Southeast 212 244 7,600 -1,260 Descending FAA TRACON SMA TRACON (SMA)
08:29AM 40.1361 -75.4533 162° South 226 260 7,100 -1,260 Descending FAA TRACON SMA TRACON (SMA)
08:30AM 40.1136 -75.4425 160° South 224 258 6,700 -1,320 Descending FAA TRACON SMA TRACON (SMA)
08:30AM 40.0961 -75.4339 159° South 220 253 6,300 -1,020 Descending FAA TRACON SMA TRACON (SMA)
08:30AM 40.0792 -75.4256 159° South 217 250 6,100 -480 Descending FAA TRACON SMA TRACON (SMA)
08:31AM 40.0606 -75.4178 162° South 214 246 6,000 -180 Descending FAA TRACON SMA TRACON (SMA)
08:31AM 40.0400 -75.4114 167° South 211 243 6,000  Level FAA TRACON SMA TRACON (SMA)
08:31AM 40.0219 -75.4064 168° South 211 243 6,000  Level FAA TRACON SMA TRACON (SMA)
08:32AM 40.0006 -75.4003 168° South 211 243 6,000  Level FAA TRACON SMA TRACON (SMA)
08:32AM 39.9828 -75.3944 166° South 209 241 6,000  Level FAA TRACON SMA TRACON (SMA)
08:32AM 39.9653 -75.3892 167° South 210 242 6,000  Level FAA TRACON SMA TRACON (SMA)
08:33AM 39.9433 -75.3861 174° South 217 250 6,000  Level FAA TRACON SMA TRACON (SMA)
08:33AM 39.9303 -75.3994 218° Southwest 209 241 6,000  Level FAA TRACON SMA TRACON (SMA)
08:33AM 39.9250 -75.4197 251° West 208 239 6,000  Level FAA TRACON SMA TRACON (SMA)
08:34AM 39.9192 -75.4492 256° West 211 243 6,000  Level FAA TRACON SMA TRACON (SMA)
08:34AM 39.9142 -75.4717 254° West 210 242 6,000  Level FAA TRACON SMA TRACON (SMA)
08:34AM 39.9089 -75.4931 252° West 205 236 6,000  Level FAA TRACON SMA TRACON (SMA)
08:35AM 39.9033 -75.5183 254° West 195 224 6,000  Level FAA TRACON SMA TRACON (SMA)
08:35AM 39.9003 -75.5336 255° West 189 217 6,000 -480 Level FAA TRACON SMA TRACON (SMA)
08:35AM 39.8956 -75.5575 256° West 180 207 5,700 -1,080 Descending FAA TRACON SMA TRACON (SMA)
08:36AM 39.8906 -75.5808 254° West 175 201 5,300 -1,080 Descending FAA TRACON SMA TRACON (SMA)
08:36AM 39.8872 -75.5994 257° West 175 201 5,000 -480 Descending FAA TRACON SMA TRACON (SMA)
08:36AM 39.8828 -75.6178 252° West 174 200 5,000  Level FAA TRACON SMA TRACON (SMA)
08:37AM 39.8711 -75.6350 229° Southwest 166 191 5,000 -300 Level FAA TRACON SMA TRACON (SMA)
08:37AM 39.8586 -75.6433 207° Southwest 165 190 4,800 -900 Descending FAA TRACON SMA TRACON (SMA)
08:37AM 39.8447 -75.6411 173° South 178 205 4,400 -1,080 Descending FAA TRACON SMA TRACON (SMA)
08:38AM 39.8281 -75.6319 157° South 165 190 4,100 -600 Descending FAA TRACON SMA TRACON (SMA)
08:38AM 39.8228 -75.6131 110° East 188 216 4,000 -180 Descending FAA TRACON SMA TRACON (SMA)
08:38AM 39.8189 -75.5911 103° East 198 228 4,000 -180 Level FAA TRACON SMA TRACON (SMA)
08:39AM 39.8156 -75.5644 99° East 192 221 3,900 -600 Descending FAA TRACON SMA TRACON (SMA)
08:39AM 39.8133 -75.5439 98° East 190 219 3,600 -900 Descending FAA TRACON SMA TRACON (SMA)
08:39AM 39.8122 -75.5236 94° East 189 217 3,300 -900 Descending FAA TRACON SMA TRACON (SMA)
08:40AM 39.8167 -75.4950 79° East 210 242 3,000 -480 Descending FAA TRACON SMA TRACON (SMA)
08:40AM 39.8211 -75.4714 76° East 223 257 3,000 -300 Level FAA TRACON SMA TRACON (SMA)
08:40AM 39.8258 -75.4489 75° East 213 245 2,800 -900 Descending FAA TRACON SMA TRACON (SMA)
08:41AM 39.8311 -75.4211 76° East 206 237 2,400 -1,200 Descending FAA TRACON SMA TRACON (SMA)